sensor_id;sensor_type;location;lat;lon;timestamp;P1;durP1;ratioP1;P2;durP2;ratioP2
20076;SDS011;12348;42.710;23.378;2024-01-07T00:00:22;3.27;;;2.87;;
20076;SDS011;12348;42.710;23.378;2024-01-07T00:02:49;9.23;;;5.03;;
20076;SDS011;12348;42.710;23.378;2024-01-07T00:05:16;4.67;;;3.13;;
20076;SDS011;12348;42.710;23.378;2024-01-07T00:07:43;5.43;;;3.63;;
20076;SDS011;12348;42.710;23.378;2024-01-07T00:10:09;4.37;;;3.67;;
20076;SDS011;12348;42.710;23.378;2024-01-07T00:12:36;8.67;;;5.70;;
20076;SDS011;12348;42.710;23.378;2024-01-07T00:15:03;8.70;;;5.17;;
20076;SDS011;12348;42.710;23.378;2024-01-07T00:17:32;6.40;;;5.67;;
20076;SDS011;12348;42.710;23.378;2024-01-07T00:19:58;8.17;;;7.40;;
20076;SDS011;12348;42.710;23.378;2024-01-07T00:22:25;13.60;;;6.60;;
20076;SDS011;12348;42.710;23.378;2024-01-07T00:24:52;8.07;;;5.70;;
20076;SDS011;12348;42.710;23.378;2024-01-07T00:27:18;6.50;;;4.17;;
20076;SDS011;12348;42.710;23.378;2024-01-07T00:29:45;8.47;;;5.30;;
20076;SDS011;12348;42.710;23.378;2024-01-07T00:32:12;9.33;;;5.23;;
20076;SDS011;12348;42.710;23.378;2024-01-07T00:34:40;8.67;;;4.60;;
20076;SDS011;12348;42.710;23.378;2024-01-07T00:37:07;3.87;;;3.57;;
20076;SDS011;12348;42.710;23.378;2024-01-07T00:39:34;6.30;;;4.77;;
20076;SDS011;12348;42.710;23.378;2024-01-07T00:42:00;7.50;;;5.73;;
20076;SDS011;12348;42.710;23.378;2024-01-07T00:44:27;11.40;;;5.50;;
20076;SDS011;12348;42.710;23.378;2024-01-07T00:46:54;7.37;;;6.10;;
20076;SDS011;12348;42.710;23.378;2024-01-07T00:49:20;10.20;;;5.00;;
20076;SDS011;12348;42.710;23.378;2024-01-07T00:51:48;6.60;;;5.30;;
20076;SDS011;12348;42.710;23.378;2024-01-07T00:54:15;5.60;;;4.20;;
20076;SDS011;12348;42.710;23.378;2024-01-07T00:56:42;4.77;;;4.40;;
20076;SDS011;12348;42.710;23.378;2024-01-07T00:59:09;21.73;;;8.60;;
20076;SDS011;12348;42.710;23.378;2024-01-07T01:01:36;9.47;;;5.17;;
20076;SDS011;12348;42.710;23.378;2024-01-07T01:04:02;8.77;;;4.27;;
20076;SDS011;12348;42.710;23.378;2024-01-07T01:06:29;8.10;;;4.60;;
20076;SDS011;12348;42.710;23.378;2024-01-07T01:08:57;13.10;;;4.67;;
20076;SDS011;12348;42.710;23.378;2024-01-07T01:11:24;3.33;;;2.80;;
20076;SDS011;12348;42.710;23.378;2024-01-07T01:13:51;4.87;;;3.87;;
20076;SDS011;12348;42.710;23.378;2024-01-07T01:16:18;3.80;;;2.43;;
20076;SDS011;12348;42.710;23.378;2024-01-07T01:18:44;3.70;;;3.47;;
20076;SDS011;12348;42.710;23.378;2024-01-07T01:21:11;9.03;;;6.03;;
20076;SDS011;12348;42.710;23.378;2024-01-07T01:23:38;9.47;;;5.43;;
20076;SDS011;12348;42.710;23.378;2024-01-07T01:26:06;10.80;;;5.00;;
20076;SDS011;12348;42.710;23.378;2024-01-07T01:28:33;2.13;;;2.03;;
20076;SDS011;12348;42.710;23.378;2024-01-07T01:31:00;4.80;;;3.73;;
20076;SDS011;12348;42.710;23.378;2024-01-07T01:33:26;7.00;;;4.37;;
20076;SDS011;12348;42.710;23.378;2024-01-07T01:35:53;7.03;;;4.77;;
20076;SDS011;12348;42.710;23.378;2024-01-07T01:38:20;4.63;;;4.30;;
20076;SDS011;12348;42.710;23.378;2024-01-07T01:40:50;6.80;;;4.33;;
20076;SDS011;12348;42.710;23.378;2024-01-07T01:43:24;4.87;;;4.10;;
20076;SDS011;12348;42.710;23.378;2024-01-07T01:45:51;5.20;;;4.57;;
20076;SDS011;12348;42.710;23.378;2024-01-07T01:48:18;4.17;;;3.57;;
20076;SDS011;12348;42.710;23.378;2024-01-07T01:50:46;6.50;;;4.70;;
20076;SDS011;12348;42.710;23.378;2024-01-07T01:53:13;7.20;;;5.07;;
20076;SDS011;12348;42.710;23.378;2024-01-07T01:55:41;7.37;;;4.43;;
20076;SDS011;12348;42.710;23.378;2024-01-07T01:58:09;4.37;;;3.70;;
20076;SDS011;12348;42.710;23.378;2024-01-07T02:00:37;9.23;;;6.77;;
20076;SDS011;12348;42.710;23.378;2024-01-07T02:03:04;6.13;;;4.70;;
20076;SDS011;12348;42.710;23.378;2024-01-07T02:05:31;4.23;;;3.87;;
20076;SDS011;12348;42.710;23.378;2024-01-07T02:07:58;6.40;;;3.17;;
20076;SDS011;12348;42.710;23.378;2024-01-07T02:10:25;5.97;;;4.33;;
20076;SDS011;12348;42.710;23.378;2024-01-07T02:12:52;11.30;;;6.60;;
20076;SDS011;12348;42.710;23.378;2024-01-07T02:15:18;7.90;;;5.43;;
20076;SDS011;12348;42.710;23.378;2024-01-07T02:17:46;12.27;;;6.87;;
20076;SDS011;12348;42.710;23.378;2024-01-07T02:20:13;1.80;;;1.70;;
20076;SDS011;12348;42.710;23.378;2024-01-07T02:22:40;1.67;;;1.57;;
20076;SDS011;12348;42.710;23.378;2024-01-07T02:25:08;2.90;;;2.43;;
20076;SDS011;12348;42.710;23.378;2024-01-07T02:27:35;1.87;;;1.77;;
20076;SDS011;12348;42.710;23.378;2024-01-07T02:30:02;1.87;;;1.77;;
20076;SDS011;12348;42.710;23.378;2024-01-07T02:32:29;4.00;;;1.40;;
20076;SDS011;12348;42.710;23.378;2024-01-07T02:34:59;0.63;;;0.63;;
20076;SDS011;12348;42.710;23.378;2024-01-07T02:37:26;7.50;;;2.90;;
20076;SDS011;12348;42.710;23.378;2024-01-07T02:39:52;8.77;;;2.10;;
20076;SDS011;12348;42.710;23.378;2024-01-07T02:42:20;6.17;;;2.13;;
20076;SDS011;12348;42.710;23.378;2024-01-07T02:44:47;3.90;;;2.93;;
20076;SDS011;12348;42.710;23.378;2024-01-07T02:47:14;9.90;;;4.10;;
20076;SDS011;12348;42.710;23.378;2024-01-07T02:49:40;9.13;;;4.80;;
20076;SDS011;12348;42.710;23.378;2024-01-07T02:52:07;7.67;;;6.47;;
20076;SDS011;12348;42.710;23.378;2024-01-07T02:54:35;4.87;;;4.47;;
20076;SDS011;12348;42.710;23.378;2024-01-07T02:57:00;7.70;;;5.07;;
20076;SDS011;12348;42.710;23.378;2024-01-07T02:59:28;5.90;;;5.40;;
20076;SDS011;12348;42.710;23.378;2024-01-07T03:01:55;9.57;;;7.07;;
20076;SDS011;12348;42.710;23.378;2024-01-07T03:04:22;12.10;;;5.77;;
20076;SDS011;12348;42.710;23.378;2024-01-07T03:06:49;11.10;;;6.80;;
20076;SDS011;12348;42.710;23.378;2024-01-07T03:09:15;7.63;;;6.03;;
20076;SDS011;12348;42.710;23.378;2024-01-07T03:11:42;7.77;;;5.70;;
20076;SDS011;12348;42.710;23.378;2024-01-07T03:14:09;17.83;;;7.47;;
20076;SDS011;12348;42.710;23.378;2024-01-07T03:16:38;11.40;;;7.00;;
20076;SDS011;12348;42.710;23.378;2024-01-07T03:19:05;14.13;;;6.07;;
20076;SDS011;12348;42.710;23.378;2024-01-07T03:21:31;8.00;;;5.07;;
20076;SDS011;12348;42.710;23.378;2024-01-07T03:23:58;7.43;;;4.30;;
20076;SDS011;12348;42.710;23.378;2024-01-07T03:26:25;4.37;;;3.00;;
20076;SDS011;12348;42.710;23.378;2024-01-07T03:28:57;6.57;;;4.23;;
20076;SDS011;12348;42.710;23.378;2024-01-07T03:31:25;8.57;;;6.13;;
20076;SDS011;12348;42.710;23.378;2024-01-07T03:33:53;10.67;;;5.37;;
20076;SDS011;12348;42.710;23.378;2024-01-07T03:36:20;11.73;;;6.30;;
20076;SDS011;12348;42.710;23.378;2024-01-07T03:38:47;4.77;;;3.70;;
20076;SDS011;12348;42.710;23.378;2024-01-07T03:41:15;7.43;;;4.10;;
20076;SDS011;12348;42.710;23.378;2024-01-07T03:43:43;13.70;;;5.53;;
20076;SDS011;12348;42.710;23.378;2024-01-07T03:46:10;5.67;;;4.90;;
20076;SDS011;12348;42.710;23.378;2024-01-07T03:48:36;4.87;;;3.20;;
20076;SDS011;12348;42.710;23.378;2024-01-07T03:51:04;8.57;;;3.93;;
20076;SDS011;12348;42.710;23.378;2024-01-07T03:53:32;10.03;;;5.40;;
20076;SDS011;12348;42.710;23.378;2024-01-07T03:55:58;5.30;;;4.67;;
20076;SDS011;12348;42.710;23.378;2024-01-07T03:58:25;6.57;;;4.60;;
20076;SDS011;12348;42.710;23.378;2024-01-07T04:00:52;8.57;;;5.50;;
20076;SDS011;12348;42.710;23.378;2024-01-07T04:03:19;5.60;;;5.03;;
20076;SDS011;12348;42.710;23.378;2024-01-07T04:05:45;5.13;;;4.43;;
20076;SDS011;12348;42.710;23.378;2024-01-07T04:08:13;2.83;;;2.63;;
20076;SDS011;12348;42.710;23.378;2024-01-07T04:10:41;3.30;;;2.50;;
20076;SDS011;12348;42.710;23.378;2024-01-07T04:13:08;4.20;;;2.83;;
20076;SDS011;12348;42.710;23.378;2024-01-07T04:15:35;6.83;;;4.57;;
20076;SDS011;12348;42.710;23.378;2024-01-07T04:18:01;4.23;;;2.57;;
20076;SDS011;12348;42.710;23.378;2024-01-07T04:20:29;8.47;;;4.53;;
20076;SDS011;12348;42.710;23.378;2024-01-07T04:22:55;5.20;;;3.47;;
20076;SDS011;12348;42.710;23.378;2024-01-07T04:25:24;3.80;;;2.33;;
20076;SDS011;12348;42.710;23.378;2024-01-07T04:27:50;2.67;;;2.43;;
20076;SDS011;12348;42.710;23.378;2024-01-07T04:30:17;6.27;;;3.07;;
20076;SDS011;12348;42.710;23.378;2024-01-07T04:32:44;2.20;;;2.10;;
20076;SDS011;12348;42.710;23.378;2024-01-07T04:35:10;5.70;;;3.30;;
20076;SDS011;12348;42.710;23.378;2024-01-07T04:37:37;4.20;;;3.33;;
20076;SDS011;12348;42.710;23.378;2024-01-07T04:40:05;8.87;;;4.53;;
20076;SDS011;12348;42.710;23.378;2024-01-07T04:42:34;2.50;;;2.27;;
20076;SDS011;12348;42.710;23.378;2024-01-07T04:45:00;9.03;;;5.33;;
20076;SDS011;12348;42.710;23.378;2024-01-07T04:47:28;9.73;;;3.97;;
20076;SDS011;12348;42.710;23.378;2024-01-07T04:49:56;8.97;;;3.60;;
20076;SDS011;12348;42.710;23.378;2024-01-07T04:52:23;7.20;;;4.60;;
20076;SDS011;12348;42.710;23.378;2024-01-07T04:54:50;9.30;;;4.63;;
20076;SDS011;12348;42.710;23.378;2024-01-07T04:57:17;4.83;;;3.30;;
20076;SDS011;12348;42.710;23.378;2024-01-07T04:59:46;3.63;;;2.47;;
20076;SDS011;12348;42.710;23.378;2024-01-07T05:02:12;11.37;;;4.97;;
20076;SDS011;12348;42.710;23.378;2024-01-07T05:04:39;3.50;;;3.20;;
20076;SDS011;12348;42.710;23.378;2024-01-07T05:07:06;4.57;;;4.10;;
20076;SDS011;12348;42.710;23.378;2024-01-07T05:09:33;4.83;;;3.90;;
20076;SDS011;12348;42.710;23.378;2024-01-07T05:12:00;4.57;;;2.50;;
20076;SDS011;12348;42.710;23.378;2024-01-07T05:14:26;4.63;;;4.17;;
20076;SDS011;12348;42.710;23.378;2024-01-07T05:16:54;5.73;;;3.47;;
20076;SDS011;12348;42.710;23.378;2024-01-07T05:19:21;7.47;;;3.57;;
20076;SDS011;12348;42.710;23.378;2024-01-07T05:21:48;4.57;;;2.90;;
20076;SDS011;12348;42.710;23.378;2024-01-07T05:24:15;3.43;;;2.80;;
20076;SDS011;12348;42.710;23.378;2024-01-07T05:26:42;9.40;;;4.13;;
20076;SDS011;12348;42.710;23.378;2024-01-07T05:29:10;3.40;;;3.17;;
20076;SDS011;12348;42.710;23.378;2024-01-07T05:31:37;5.67;;;3.73;;
20076;SDS011;12348;42.710;23.378;2024-01-07T05:34:05;5.03;;;4.57;;
20076;SDS011;12348;42.710;23.378;2024-01-07T05:36:32;5.57;;;4.70;;
20076;SDS011;12348;42.710;23.378;2024-01-07T05:38:59;5.57;;;4.43;;
20076;SDS011;12348;42.710;23.378;2024-01-07T05:41:26;6.27;;;5.27;;
20076;SDS011;12348;42.710;23.378;2024-01-07T05:43:52;5.97;;;3.83;;
20076;SDS011;12348;42.710;23.378;2024-01-07T05:46:19;4.90;;;4.07;;
20076;SDS011;12348;42.710;23.378;2024-01-07T05:48:47;12.53;;;6.73;;
20076;SDS011;12348;42.710;23.378;2024-01-07T05:51:16;6.97;;;4.17;;
20076;SDS011;12348;42.710;23.378;2024-01-07T05:53:43;5.67;;;3.30;;
20076;SDS011;12348;42.710;23.378;2024-01-07T05:56:10;4.80;;;4.20;;
20076;SDS011;12348;42.710;23.378;2024-01-07T05:58:37;6.73;;;4.03;;
20076;SDS011;12348;42.710;23.378;2024-01-07T06:01:05;6.43;;;4.43;;
20076;SDS011;12348;42.710;23.378;2024-01-07T06:03:33;9.03;;;5.40;;
20076;SDS011;12348;42.710;23.378;2024-01-07T06:06:02;9.47;;;6.00;;
20076;SDS011;12348;42.710;23.378;2024-01-07T06:08:31;7.53;;;6.30;;
20076;SDS011;12348;42.710;23.378;2024-01-07T06:10:58;7.53;;;5.93;;
20076;SDS011;12348;42.710;23.378;2024-01-07T06:13:25;6.00;;;4.90;;
20076;SDS011;12348;42.710;23.378;2024-01-07T06:15:52;11.37;;;5.17;;
20076;SDS011;12348;42.710;23.378;2024-01-07T06:18:18;5.70;;;4.97;;
20076;SDS011;12348;42.710;23.378;2024-01-07T06:20:45;13.20;;;5.40;;
20076;SDS011;12348;42.710;23.378;2024-01-07T06:23:12;7.10;;;6.37;;
20076;SDS011;12348;42.710;23.378;2024-01-07T06:25:40;6.63;;;4.60;;
20076;SDS011;12348;42.710;23.378;2024-01-07T06:28:06;8.37;;;5.70;;
20076;SDS011;12348;42.710;23.378;2024-01-07T06:30:35;5.03;;;4.10;;
20076;SDS011;12348;42.710;23.378;2024-01-07T06:33:01;3.77;;;3.37;;
20076;SDS011;12348;42.710;23.378;2024-01-07T06:35:28;6.50;;;4.67;;
20076;SDS011;12348;42.710;23.378;2024-01-07T06:37:55;4.20;;;3.80;;
20076;SDS011;12348;42.710;23.378;2024-01-07T06:40:22;3.60;;;2.73;;
20076;SDS011;12348;42.710;23.378;2024-01-07T06:42:51;0.40;;;0.40;;
20076;SDS011;12348;42.710;23.378;2024-01-07T06:45:18;0.33;;;0.33;;
20076;SDS011;12348;42.710;23.378;2024-01-07T06:47:44;1.03;;;0.97;;
20076;SDS011;12348;42.710;23.378;2024-01-07T06:50:11;1.67;;;1.57;;
20076;SDS011;12348;42.710;23.378;2024-01-07T06:52:38;4.30;;;3.27;;
20076;SDS011;12348;42.710;23.378;2024-01-07T06:55:06;3.57;;;3.37;;
20076;SDS011;12348;42.710;23.378;2024-01-07T06:57:34;8.97;;;6.80;;
20076;SDS011;12348;42.710;23.378;2024-01-07T07:00:02;4.00;;;3.77;;
20076;SDS011;12348;42.710;23.378;2024-01-07T07:02:30;2.87;;;2.60;;
20076;SDS011;12348;42.710;23.378;2024-01-07T07:04:58;2.57;;;1.43;;
20076;SDS011;12348;42.710;23.378;2024-01-07T07:07:24;1.80;;;1.37;;
20076;SDS011;12348;42.710;23.378;2024-01-07T07:09:51;1.00;;;1.00;;
20076;SDS011;12348;42.710;23.378;2024-01-07T07:12:20;0.90;;;0.87;;
20076;SDS011;12348;42.710;23.378;2024-01-07T07:14:47;4.97;;;2.77;;
20076;SDS011;12348;42.710;23.378;2024-01-07T07:17:16;3.97;;;3.57;;
20076;SDS011;12348;42.710;23.378;2024-01-07T07:19:42;12.60;;;5.47;;
20076;SDS011;12348;42.710;23.378;2024-01-07T07:22:09;6.73;;;5.47;;
20076;SDS011;12348;42.710;23.378;2024-01-07T07:24:38;0.90;;;0.87;;
20076;SDS011;12348;42.710;23.378;2024-01-07T07:27:06;4.20;;;3.50;;
20076;SDS011;12348;42.710;23.378;2024-01-07T07:29:33;8.57;;;3.50;;
20076;SDS011;12348;42.710;23.378;2024-01-07T07:32:00;1.90;;;1.80;;
20076;SDS011;12348;42.710;23.378;2024-01-07T07:34:28;6.90;;;4.87;;
20076;SDS011;12348;42.710;23.378;2024-01-07T07:36:54;12.93;;;7.10;;
20076;SDS011;12348;42.710;23.378;2024-01-07T07:39:21;5.67;;;5.10;;
20076;SDS011;12348;42.710;23.378;2024-01-07T07:41:49;10.03;;;6.87;;
20076;SDS011;12348;42.710;23.378;2024-01-07T07:44:16;7.50;;;5.80;;
20076;SDS011;12348;42.710;23.378;2024-01-07T07:46:43;8.57;;;5.70;;
20076;SDS011;12348;42.710;23.378;2024-01-07T07:49:09;11.73;;;6.00;;
20076;SDS011;12348;42.710;23.378;2024-01-07T07:51:38;7.37;;;4.30;;
20076;SDS011;12348;42.710;23.378;2024-01-07T07:54:06;14.33;;;7.93;;
20076;SDS011;12348;42.710;23.378;2024-01-07T07:56:33;8.23;;;5.63;;
20076;SDS011;12348;42.710;23.378;2024-01-07T07:59:01;10.63;;;5.83;;
20076;SDS011;12348;42.710;23.378;2024-01-07T08:01:27;9.30;;;6.53;;
20076;SDS011;12348;42.710;23.378;2024-01-07T08:03:54;19.53;;;7.87;;
20076;SDS011;12348;42.710;23.378;2024-01-07T08:06:21;19.03;;;9.03;;
20076;SDS011;12348;42.710;23.378;2024-01-07T08:08:49;19.73;;;10.77;;
20076;SDS011;12348;42.710;23.378;2024-01-07T08:11:16;19.27;;;10.57;;
20076;SDS011;12348;42.710;23.378;2024-01-07T08:13:43;14.63;;;9.37;;
20076;SDS011;12348;42.710;23.378;2024-01-07T08:16:10;9.77;;;4.83;;
20076;SDS011;12348;42.710;23.378;2024-01-07T08:18:37;22.43;;;7.47;;
20076;SDS011;12348;42.710;23.378;2024-01-07T08:21:04;11.03;;;6.57;;
20076;SDS011;12348;42.710;23.378;2024-01-07T08:23:30;5.63;;;4.90;;
20076;SDS011;12348;42.710;23.378;2024-01-07T08:25:59;12.87;;;5.53;;
20076;SDS011;12348;42.710;23.378;2024-01-07T08:28:26;10.97;;;6.70;;
20076;SDS011;12348;42.710;23.378;2024-01-07T08:30:52;6.50;;;3.70;;
20076;SDS011;12348;42.710;23.378;2024-01-07T08:33:21;12.73;;;3.63;;
20076;SDS011;12348;42.710;23.378;2024-01-07T08:35:48;6.17;;;4.10;;
20076;SDS011;12348;42.710;23.378;2024-01-07T08:38:14;9.50;;;4.17;;
20076;SDS011;12348;42.710;23.378;2024-01-07T08:40:41;8.07;;;3.93;;
20076;SDS011;12348;42.710;23.378;2024-01-07T08:43:10;13.13;;;4.67;;
20076;SDS011;12348;42.710;23.378;2024-01-07T08:45:36;4.63;;;3.90;;
20076;SDS011;12348;42.710;23.378;2024-01-07T08:48:03;4.90;;;3.80;;
20076;SDS011;12348;42.710;23.378;2024-01-07T08:50:31;7.10;;;5.70;;
20076;SDS011;12348;42.710;23.378;2024-01-07T08:52:58;11.47;;;3.67;;
20076;SDS011;12348;42.710;23.378;2024-01-07T08:55:24;6.93;;;4.57;;
20076;SDS011;12348;42.710;23.378;2024-01-07T08:57:54;9.33;;;5.00;;
20076;SDS011;12348;42.710;23.378;2024-01-07T09:00:22;3.33;;;2.63;;
20076;SDS011;12348;42.710;23.378;2024-01-07T09:02:51;4.20;;;2.77;;
20076;SDS011;12348;42.710;23.378;2024-01-07T09:05:18;7.77;;;3.20;;
20076;SDS011;12348;42.710;23.378;2024-01-07T09:07:45;5.20;;;3.20;;
20076;SDS011;12348;42.710;23.378;2024-01-07T09:10:12;5.10;;;3.77;;
20076;SDS011;12348;42.710;23.378;2024-01-07T09:12:38;6.10;;;3.77;;
20076;SDS011;12348;42.710;23.378;2024-01-07T09:15:05;6.00;;;2.97;;
20076;SDS011;12348;42.710;23.378;2024-01-07T09:17:35;6.87;;;2.97;;
20076;SDS011;12348;42.710;23.378;2024-01-07T09:20:03;7.50;;;3.53;;
20076;SDS011;12348;42.710;23.378;2024-01-07T09:22:32;5.73;;;2.77;;
20076;SDS011;12348;42.710;23.378;2024-01-07T09:24:59;4.73;;;3.00;;
20076;SDS011;12348;42.710;23.378;2024-01-07T09:27:26;19.07;;;9.20;;
20076;SDS011;12348;42.710;23.378;2024-01-07T09:29:53;7.70;;;4.33;;
20076;SDS011;12348;42.710;23.378;2024-01-07T09:32:19;8.90;;;4.67;;
20076;SDS011;12348;42.710;23.378;2024-01-07T09:34:47;7.10;;;3.70;;
20076;SDS011;12348;42.710;23.378;2024-01-07T09:37:14;4.67;;;3.07;;
20076;SDS011;12348;42.710;23.378;2024-01-07T09:39:41;8.83;;;4.43;;
20076;SDS011;12348;42.710;23.378;2024-01-07T09:42:08;5.43;;;2.20;;
20076;SDS011;12348;42.710;23.378;2024-01-07T09:44:39;7.97;;;3.73;;
20076;SDS011;12348;42.710;23.378;2024-01-07T09:47:07;7.93;;;3.67;;
20076;SDS011;12348;42.710;23.378;2024-01-07T09:49:37;5.03;;;3.37;;
20076;SDS011;12348;42.710;23.378;2024-01-07T09:52:05;6.13;;;3.10;;
20076;SDS011;12348;42.710;23.378;2024-01-07T09:54:33;5.63;;;3.87;;
20076;SDS011;12348;42.710;23.378;2024-01-07T09:57:03;6.07;;;3.53;;
20076;SDS011;12348;42.710;23.378;2024-01-07T09:59:31;6.27;;;3.90;;
20076;SDS011;12348;42.710;23.378;2024-01-07T10:01:58;4.30;;;2.57;;
20076;SDS011;12348;42.710;23.378;2024-01-07T10:04:26;8.50;;;4.83;;
20076;SDS011;12348;42.710;23.378;2024-01-07T10:06:53;5.33;;;3.40;;
20076;SDS011;12348;42.710;23.378;2024-01-07T10:09:23;6.23;;;2.60;;
20076;SDS011;12348;42.710;23.378;2024-01-07T10:11:51;11.67;;;3.97;;
20076;SDS011;12348;42.710;23.378;2024-01-07T10:14:19;6.47;;;3.10;;
20076;SDS011;12348;42.710;23.378;2024-01-07T10:16:47;5.00;;;2.73;;
20076;SDS011;12348;42.710;23.378;2024-01-07T10:19:17;7.70;;;2.73;;
20076;SDS011;12348;42.710;23.378;2024-01-07T10:21:46;5.23;;;3.53;;
20076;SDS011;12348;42.710;23.378;2024-01-07T10:24:13;5.60;;;3.50;;
20076;SDS011;12348;42.710;23.378;2024-01-07T10:26:41;5.43;;;3.20;;
20076;SDS011;12348;42.710;23.378;2024-01-07T10:29:08;10.77;;;4.60;;
20076;SDS011;12348;42.710;23.378;2024-01-07T10:31:35;7.00;;;5.30;;
20076;SDS011;12348;42.710;23.378;2024-01-07T10:34:06;8.07;;;3.77;;
20076;SDS011;12348;42.710;23.378;2024-01-07T10:36:33;5.97;;;3.50;;
20076;SDS011;12348;42.710;23.378;2024-01-07T10:39:00;5.03;;;3.40;;
20076;SDS011;12348;42.710;23.378;2024-01-07T10:41:27;7.67;;;3.70;;
20076;SDS011;12348;42.710;23.378;2024-01-07T10:43:56;5.73;;;4.07;;
20076;SDS011;12348;42.710;23.378;2024-01-07T10:46:25;4.00;;;3.23;;
20076;SDS011;12348;42.710;23.378;2024-01-07T10:48:58;9.00;;;3.87;;
20076;SDS011;12348;42.710;23.378;2024-01-07T10:51:27;2.10;;;0.80;;
20076;SDS011;12348;42.710;23.378;2024-01-07T10:53:55;10.60;;;3.80;;
20076;SDS011;12348;42.710;23.378;2024-01-07T10:56:23;4.80;;;3.17;;
20076;SDS011;12348;42.710;23.378;2024-01-07T10:58:51;3.90;;;2.63;;
20076;SDS011;12348;42.710;23.378;2024-01-07T11:01:20;0.30;;;0.30;;
20076;SDS011;12348;42.710;23.378;2024-01-07T11:03:51;4.90;;;3.43;;
20076;SDS011;12348;42.710;23.378;2024-01-07T11:06:25;10.33;;;4.73;;
20076;SDS011;12348;42.710;23.378;2024-01-07T11:08:57;5.80;;;3.80;;
20076;SDS011;12348;42.710;23.378;2024-01-07T11:11:31;10.20;;;4.93;;
20076;SDS011;12348;42.710;23.378;2024-01-07T11:14:03;13.67;;;4.80;;
20076;SDS011;12348;42.710;23.378;2024-01-07T11:16:43;5.70;;;3.57;;
20076;SDS011;12348;42.710;23.378;2024-01-07T11:19:12;6.23;;;3.47;;
20076;SDS011;12348;42.710;23.378;2024-01-07T11:21:39;6.43;;;3.43;;
20076;SDS011;12348;42.710;23.378;2024-01-07T11:24:06;11.13;;;3.97;;
20076;SDS011;12348;42.710;23.378;2024-01-07T11:26:33;6.77;;;4.13;;
20076;SDS011;12348;42.710;23.378;2024-01-07T11:29:00;9.77;;;4.37;;
20076;SDS011;12348;42.710;23.378;2024-01-07T11:34:38;5.17;;;2.57;;
20076;SDS011;12348;42.710;23.378;2024-01-07T11:37:07;4.30;;;1.87;;
20076;SDS011;12348;42.710;23.378;2024-01-07T11:39:37;8.50;;;2.67;;
20076;SDS011;12348;42.710;23.378;2024-01-07T11:42:03;5.90;;;2.90;;
20076;SDS011;12348;42.710;23.378;2024-01-07T11:44:32;5.03;;;3.07;;
20076;SDS011;12348;42.710;23.378;2024-01-07T11:47:02;4.83;;;2.73;;
20076;SDS011;12348;42.710;23.378;2024-01-07T11:49:30;3.53;;;2.23;;
20076;SDS011;12348;42.710;23.378;2024-01-07T11:51:58;7.43;;;2.37;;
20076;SDS011;12348;42.710;23.378;2024-01-07T11:54:24;4.57;;;2.83;;
20076;SDS011;12348;42.710;23.378;2024-01-07T11:56:51;3.50;;;3.20;;
20076;SDS011;12348;42.710;23.378;2024-01-07T11:59:18;3.33;;;2.30;;
20076;SDS011;12348;42.710;23.378;2024-01-07T12:01:44;4.53;;;2.90;;
20076;SDS011;12348;42.710;23.378;2024-01-07T12:04:12;7.03;;;3.60;;
20076;SDS011;12348;42.710;23.378;2024-01-07T12:06:39;8.20;;;4.23;;
20076;SDS011;12348;42.710;23.378;2024-01-07T12:09:07;14.57;;;6.33;;
20076;SDS011;12348;42.710;23.378;2024-01-07T12:11:34;8.57;;;4.93;;
20076;SDS011;12348;42.710;23.378;2024-01-07T12:14:01;10.83;;;4.97;;
20076;SDS011;12348;42.710;23.378;2024-01-07T12:16:28;7.43;;;3.40;;
20076;SDS011;12348;42.710;23.378;2024-01-07T12:18:55;5.83;;;2.73;;
20076;SDS011;12348;42.710;23.378;2024-01-07T12:21:25;5.53;;;1.40;;
20076;SDS011;12348;42.710;23.378;2024-01-07T12:23:53;1.43;;;1.27;;
20076;SDS011;12348;42.710;23.378;2024-01-07T12:26:25;1.20;;;1.13;;
20076;SDS011;12348;42.710;23.378;2024-01-07T12:28:52;2.17;;;1.33;;
20076;SDS011;12348;42.710;23.378;2024-01-07T12:31:20;2.00;;;1.90;;
20076;SDS011;12348;42.710;23.378;2024-01-07T12:33:47;1.57;;;1.47;;
20076;SDS011;12348;42.710;23.378;2024-01-07T12:36:14;1.97;;;1.57;;
20076;SDS011;12348;42.710;23.378;2024-01-07T12:38:42;1.77;;;1.67;;
20076;SDS011;12348;42.710;23.378;2024-01-07T12:41:09;4.70;;;2.90;;
20076;SDS011;12348;42.710;23.378;2024-01-07T12:43:36;6.27;;;3.53;;
20076;SDS011;12348;42.710;23.378;2024-01-07T12:46:03;6.17;;;2.77;;
20076;SDS011;12348;42.710;23.378;2024-01-07T12:48:30;3.43;;;2.80;;
20076;SDS011;12348;42.710;23.378;2024-01-07T12:50:57;7.03;;;2.90;;
20076;SDS011;12348;42.710;23.378;2024-01-07T12:53:24;4.80;;;2.50;;
20076;SDS011;12348;42.710;23.378;2024-01-07T12:55:52;5.07;;;3.20;;
20076;SDS011;12348;42.710;23.378;2024-01-07T12:58:19;5.97;;;2.80;;
20076;SDS011;12348;42.710;23.378;2024-01-07T13:00:46;2.77;;;1.97;;
20076;SDS011;12348;42.710;23.378;2024-01-07T13:03:13;8.20;;;3.00;;
20076;SDS011;12348;42.710;23.378;2024-01-07T13:05:42;5.03;;;2.93;;
20076;SDS011;12348;42.710;23.378;2024-01-07T13:08:11;5.00;;;3.10;;
20076;SDS011;12348;42.710;23.378;2024-01-07T13:10:38;4.03;;;2.87;;
20076;SDS011;12348;42.710;23.378;2024-01-07T13:13:06;5.17;;;2.90;;
20076;SDS011;12348;42.710;23.378;2024-01-07T13:15:34;5.90;;;3.07;;
20076;SDS011;12348;42.710;23.378;2024-01-07T13:18:01;4.23;;;2.33;;
20076;SDS011;12348;42.710;23.378;2024-01-07T13:20:28;2.27;;;1.70;;
20076;SDS011;12348;42.710;23.378;2024-01-07T13:22:55;7.20;;;2.77;;
20076;SDS011;12348;42.710;23.378;2024-01-07T13:25:22;9.00;;;2.70;;
20076;SDS011;12348;42.710;23.378;2024-01-07T13:27:48;4.03;;;2.23;;
20076;SDS011;12348;42.710;23.378;2024-01-07T13:30:16;6.10;;;3.13;;
20076;SDS011;12348;42.710;23.378;2024-01-07T13:32:43;5.93;;;2.57;;
20076;SDS011;12348;42.710;23.378;2024-01-07T13:35:11;4.07;;;2.70;;
20076;SDS011;12348;42.710;23.378;2024-01-07T13:37:40;5.70;;;2.73;;
20076;SDS011;12348;42.710;23.378;2024-01-07T13:40:08;4.93;;;2.60;;
20076;SDS011;12348;42.710;23.378;2024-01-07T13:42:36;5.03;;;2.37;;
20076;SDS011;12348;42.710;23.378;2024-01-07T13:45:03;0.37;;;0.37;;
20076;SDS011;12348;42.710;23.378;2024-01-07T13:47:32;4.37;;;2.70;;
20076;SDS011;12348;42.710;23.378;2024-01-07T13:50:00;5.50;;;4.17;;
20076;SDS011;12348;42.710;23.378;2024-01-07T13:52:27;5.17;;;4.43;;
20076;SDS011;12348;42.710;23.378;2024-01-07T13:54:54;5.47;;;2.30;;
20076;SDS011;12348;42.710;23.378;2024-01-07T13:57:22;10.27;;;4.70;;
20076;SDS011;12348;42.710;23.378;2024-01-07T13:59:48;27.33;;;10.37;;
20076;SDS011;12348;42.710;23.378;2024-01-07T14:02:15;19.70;;;9.07;;
20076;SDS011;12348;42.710;23.378;2024-01-07T14:04:49;15.87;;;7.87;;
20076;SDS011;12348;42.710;23.378;2024-01-07T14:07:16;16.37;;;5.93;;
20076;SDS011;12348;42.710;23.378;2024-01-07T14:09:43;9.00;;;5.70;;
20076;SDS011;12348;42.710;23.378;2024-01-07T14:12:11;11.27;;;7.20;;
20076;SDS011;12348;42.710;23.378;2024-01-07T14:14:38;12.67;;;6.97;;
20076;SDS011;12348;42.710;23.378;2024-01-07T14:17:05;10.03;;;5.37;;
20076;SDS011;12348;42.710;23.378;2024-01-07T14:19:31;17.17;;;6.87;;
20076;SDS011;12348;42.710;23.378;2024-01-07T14:22:00;9.13;;;5.20;;
20076;SDS011;12348;42.710;23.378;2024-01-07T14:24:27;11.50;;;5.70;;
20076;SDS011;12348;42.710;23.378;2024-01-07T14:26:53;14.00;;;7.53;;
20076;SDS011;12348;42.710;23.378;2024-01-07T14:29:20;7.67;;;4.53;;
20076;SDS011;12348;42.710;23.378;2024-01-07T14:31:47;13.07;;;7.53;;
20076;SDS011;12348;42.710;23.378;2024-01-07T14:34:14;9.27;;;5.03;;
20076;SDS011;12348;42.710;23.378;2024-01-07T14:36:41;11.93;;;6.50;;